Time;durP1;ratioP1;P1;durP2;ratioP2;P2;SDS_P1;SDS_P2;PMS_P1;PMS_P2;Temp;Humidity;BMP_temperature;BMP_pressure;BME280_temperature;BME280_humidity;BME280_pressure;Samples;Min_cycle;Max_cycle;Signal;HPM_P1;HPM_P2
2023/08/21 00:01:19;;;;;;;2.28;1.45;;;14.30;99.90;;;;;;4943036;28;20430;-86
2023/08/21 00:03:44;;;;;;;2.72;1.50;;;14.30;99.90;;;;;;4944877;28;20031;-84
2023/08/21 00:06:10;;;;;;;3.20;2.13;;;14.30;99.90;;;;;;4959430;28;20133;-85
2023/08/21 00:08:36;;;;;;;2.33;1.75;;;14.30;99.90;;;;;;4977234;28;20046;-86
2023/08/21 00:11:02;;;;;;;2.22;1.52;;;14.30;99.90;;;;;;4956931;28;20195;-85
2023/08/21 00:13:27;;;;;;;14.65;2.28;;;14.20;99.90;;;;;;4959121;28;20039;-85
2023/08/21 00:15:55;;;;;;;22.45;1.90;;;14.20;99.90;;;;;;4960705;28;20318;-84
2023/08/21 00:18:21;;;;;;;3.35;1.15;;;14.10;99.90;;;;;;4975248;28;20072;-85
2023/08/21 00:20:46;;;;;;;2.05;1.40;;;14.10;99.90;;;;;;4977960;28;20057;-85
2023/08/21 00:23:12;;;;;;;5.68;1.83;;;14.00;99.90;;;;;;4962110;28;20501;-84
2023/08/21 00:25:38;;;;;;;4.30;1.65;;;14.00;99.90;;;;;;4959668;28;20543;-85
2023/08/21 00:28:04;;;;;;;4.38;1.65;;;14.00;99.90;;;;;;4976437;28;20401;-85
2023/08/21 00:30:29;;;;;;;3.55;1.77;;;14.00;99.90;;;;;;4959833;28;20042;-85
2023/08/21 00:32:55;;;;;;;4.40;2.10;;;14.00;99.90;;;;;;4976900;28;20467;-85
2023/08/21 00:35:20;;;;;;;1.30;1.20;;;13.90;99.90;;;;;;4976683;28;20038;-85
2023/08/21 00:37:46;;;;;;;3.53;1.83;;;13.90;99.90;;;;;;4975472;28;20478;-84
2023/08/21 00:40:13;;;;;;;3.88;1.75;;;13.80;99.90;;;;;;4960291;28;20062;-84
2023/08/21 00:42:39;;;;;;;2.13;1.48;;;13.90;99.90;;;;;;4959607;28;20072;-84
2023/08/21 00:45:08;;;;;;;2.65;1.30;;;13.80;99.90;;;;;;4941450;28;20043;-84
2023/08/21 00:47:34;;;;;;;3.42;1.67;;;13.80;99.90;;;;;;4944932;28;20439;-85
2023/08/21 00:50:00;;;;;;;3.60;1.58;;;13.80;99.90;;;;;;4975399;28;20205;-85
2023/08/21 00:52:26;;;;;;;1.70;1.60;;;13.80;99.90;;;;;;4947154;28;20030;-84
2023/08/21 00:54:52;;;;;;;93.63;7.07;;;13.70;99.90;;;;;;4959505;28;20081;-85
2023/08/21 00:57:22;;;;;;;131.18;8.82;;;13.70;99.90;;;;;;4960677;28;20046;-85
2023/08/21 00:59:48;;;;;;;2.35;1.95;;;13.60;99.90;;;;;;4959193;28;20046;-85
2023/08/21 01:02:14;;;;;;;2.13;1.90;;;13.60;99.90;;;;;;4957212;28;20090;-85
2023/08/21 01:04:40;;;;;;;2.42;1.88;;;13.60;99.90;;;;;;4943354;28;20378;-84
2023/08/21 01:07:10;;;;;;;4.30;1.92;;;13.50;99.90;;;;;;4960005;28;20058;-85
2023/08/21 01:10:03;;;;;;;1.63;1.52;;;13.50;99.90;;;;;;4957928;28;20046;-84
2023/08/21 01:12:55;;;;;;;3.10;2.05;;;13.50;99.90;;;;;;4947555;28;20038;-84
2023/08/21 01:15:22;;;;;;;1.60;1.13;;;13.40;99.90;;;;;;4959876;28;20117;-84
2023/08/21 01:17:49;;;;;;;3.88;2.30;;;13.40;99.90;;;;;;4960727;28;20667;-84
2023/08/21 01:20:16;;;;;;;2.22;2.03;;;13.40;99.90;;;;;;4959300;28;20069;-84
2023/08/21 01:22:46;;;;;;;2.90;2.03;;;13.40;99.90;;;;;;4943926;28;20061;-84
2023/08/21 01:25:11;;;;;;;6.80;2.13;;;13.30;99.90;;;;;;4956944;28;20042;-84
2023/08/21 01:27:41;;;;;;;4.25;2.13;;;13.30;99.90;;;;;;4956111;28;20057;-83
2023/08/21 01:30:09;;;;;;;3.08;1.73;;;13.30;99.90;;;;;;4961890;28;20031;-83
2023/08/21 01:33:10;;;;;;;4.95;1.80;;;13.30;99.90;;;;;;4944200;28;20197;-84
2023/08/21 01:35:36;;;;;;;4.00;2.55;;;13.20;99.90;;;;;;4975114;28;20146;-84
2023/08/21 01:38:05;;;;;;;1.88;1.20;;;13.20;99.90;;;;;;4957224;28;20073;-83
2023/08/21 01:40:30;;;;;;;6.63;1.38;;;13.20;99.90;;;;;;4941310;28;20592;-84
2023/08/21 01:42:59;;;;;;;1.17;0.90;;;13.10;99.90;;;;;;4956922;28;20129;-83
2023/08/21 01:45:24;;;;;;;2.08;0.90;;;13.00;99.90;;;;;;4955025;28;20049;-84
2023/08/21 01:47:50;;;;;;;1.40;1.30;;;13.00;99.90;;;;;;4961017;28;20035;-83
2023/08/21 01:50:16;;;;;;;5.25;1.88;;;13.00;99.90;;;;;;4955981;28;20038;-84
2023/08/21 01:52:42;;;;;;;3.22;1.65;;;13.00;99.90;;;;;;4944125;28;20053;-84
2023/08/21 01:55:08;;;;;;;2.28;1.63;;;13.10;99.90;;;;;;4974797;28;20433;-83
2023/08/21 01:57:34;;;;;;;4.20;1.83;;;13.00;99.90;;;;;;4977026;28;20034;-84
2023/08/21 01:59:59;;;;;;;2.13;1.50;;;13.00;99.90;;;;;;4972421;28;20101;-84
2023/08/21 02:02:25;;;;;;;1.95;1.40;;;12.90;99.90;;;;;;4956330;28;20215;-84
2023/08/21 02:04:51;;;;;;;3.78;0.60;;;12.90;99.90;;;;;;4974880;28;20085;-83
2023/08/21 02:07:16;;;;;;;0.85;0.77;;;12.80;99.90;;;;;;4940040;28;20056;-83
2023/08/21 02:09:42;;;;;;;1.67;1.13;;;12.90;99.90;;;;;;4959871;28;20351;-83
2023/08/21 02:12:08;;;;;;;3.10;1.20;;;12.80;99.90;;;;;;4942587;28;20487;-84
2023/08/21 02:14:33;;;;;;;2.05;1.25;;;12.80;99.90;;;;;;4942099;28;20536;-84
2023/08/21 02:16:59;;;;;;;2.78;1.23;;;12.80;99.90;;;;;;4961036;28;20505;-83
2023/08/21 02:19:25;;;;;;;1.70;1.08;;;12.80;99.90;;;;;;4957392;28;20085;-83
2023/08/21 02:21:50;;;;;;;2.25;1.15;;;12.70;99.90;;;;;;4942560;28;20125;-83
2023/08/21 02:24:19;;;;;;;2.17;1.20;;;12.70;99.90;;;;;;4972646;28;20042;-83
2023/08/21 02:26:45;;;;;;;1.63;1.10;;;12.60;99.90;;;;;;4940905;28;20085;-84
2023/08/21 02:29:11;;;;;;;1.98;1.25;;;12.60;99.90;;;;;;4973469;28;20056;-84
2023/08/21 02:31:37;;;;;;;1.77;1.08;;;12.60;99.90;;;;;;4958804;28;20046;-83
2023/08/21 02:34:02;;;;;;;1.50;1.40;;;12.60;99.90;;;;;;4959827;28;20088;-84
2023/08/21 02:36:28;;;;;;;1.77;1.55;;;12.70;99.90;;;;;;4955947;28;20069;-84
2023/08/21 02:38:56;;;;;;;2.85;1.63;;;12.70;99.90;;;;;;4957429;28;20046;-84
2023/08/21 02:41:21;;;;;;;3.60;2.00;;;12.60;99.90;;;;;;4941801;28;20528;-84
2023/08/21 02:43:47;;;;;;;1.92;1.60;;;12.70;99.90;;;;;;4972101;28;20034;-84
2023/08/21 02:46:13;;;;;;;1.77;1.58;;;12.70;99.90;;;;;;4973100;28;20582;-84
2023/08/21 02:48:38;;;;;;;3.63;1.98;;;12.70;99.90;;;;;;4959649;28;20541;-83
2023/08/21 02:51:04;;;;;;;3.00;2.30;;;12.60;99.90;;;;;;4955928;28;20495;-84
2023/08/21 02:53:30;;;;;;;3.72;1.92;;;12.60;99.90;;;;;;4958379;28;20179;-83
2023/08/21 02:55:55;;;;;;;5.90;2.50;;;12.60;99.90;;;;;;4968911;28;20044;-84
2023/08/21 02:58:21;;;;;;;3.67;2.05;;;12.60;99.90;;;;;;4954918;28;20228;-84
2023/08/21 03:00:47;;;;;;;3.30;2.08;;;12.70;99.90;;;;;;4942951;28;20212;-83
2023/08/21 03:03:18;;;;;;;3.05;1.60;;;12.60;99.90;;;;;;4973718;28;20030;-83
2023/08/21 03:05:44;;;;;;;2.78;1.80;;;12.70;99.90;;;;;;4959380;28;20629;-83
2023/08/21 03:08:10;;;;;;;2.03;1.63;;;12.70;99.90;;;;;;4957884;28;20166;-83
2023/08/21 03:10:36;;;;;;;3.13;1.70;;;12.60;99.90;;;;;;4939741;28;20071;-83
2023/08/21 03:13:03;;;;;;;2.88;1.65;;;12.70;99.90;;;;;;4940421;28;20131;-83
2023/08/21 03:15:31;;;;;;;1.50;1.17;;;12.60;99.90;;;;;;4971401;28;20038;-83
2023/08/21 03:17:57;;;;;;;4.93;1.80;;;12.40;99.90;;;;;;4959078;28;20038;-83
2023/08/21 03:20:23;;;;;;;3.53;2.22;;;12.50;99.90;;;;;;4958299;28;20457;-83
2023/08/21 03:22:48;;;;;;;2.95;2.10;;;12.40;99.90;;;;;;4959685;28;20042;-83
2023/08/21 03:25:14;;;;;;;2.42;1.70;;;12.50;99.90;;;;;;4969978;28;20039;-83
2023/08/21 03:27:44;;;;;;;2.38;1.60;;;12.50;99.90;;;;;;4959376;28;20034;-83
2023/08/21 03:30:14;;;;;;;4.70;1.70;;;12.30;99.90;;;;;;4941913;28;20047;-83
2023/08/21 03:32:40;;;;;;;1.65;1.13;;;12.20;99.90;;;;;;4943027;28;20068;-83
2023/08/21 03:35:06;;;;;;;3.00;1.70;;;12.20;99.90;;;;;;4957320;28;20039;-83
2023/08/21 03:37:31;;;;;;;3.10;2.03;;;12.40;99.90;;;;;;4956219;28;20086;-82
2023/08/21 03:39:57;;;;;;;4.55;2.22;;;12.40;99.90;;;;;;4941555;28;20042;-83
2023/08/21 03:42:23;;;;;;;4.72;2.47;;;12.40;99.90;;;;;;4955787;28;20070;-83
2023/08/21 03:44:51;;;;;;;3.40;1.70;;;12.50;99.90;;;;;;4958306;28;20401;-83
2023/08/21 03:47:17;;;;;;;2.75;1.70;;;12.30;99.90;;;;;;4960382;28;20066;-83
2023/08/21 03:49:48;;;;;;;2.72;1.65;;;12.20;99.90;;;;;;4952078;28;20039;-83
2023/08/21 03:52:14;;;;;;;1.83;1.23;;;12.20;99.90;;;;;;4956598;28;20049;-83
2023/08/21 03:54:43;;;;;;;0.85;0.70;;;12.10;99.90;;;;;;4957868;28;20039;-83
2023/08/21 03:57:08;;;;;;;1.33;1.17;;;12.10;99.90;;;;;;4955854;28;20047;-82
2023/08/21 03:59:34;;;;;;;2.38;1.27;;;12.10;99.90;;;;;;4953193;28;20043;-83
2023/08/21 04:02:00;;;;;;;1.70;1.42;;;12.10;99.90;;;;;;4973999;28;20043;-83
2023/08/21 04:04:26;;;;;;;2.20;1.77;;;12.20;99.90;;;;;;4971160;28;20127;-83
2023/08/21 04:06:52;;;;;;;3.10;1.98;;;12.20;99.90;;;;;;4938725;28;20089;-83
2023/08/21 04:09:17;;;;;;;2.60;2.17;;;12.20;99.90;;;;;;4955836;28;20054;-83
2023/08/21 04:11:43;;;;;;;3.40;2.58;;;12.30;99.90;;;;;;4940815;28;20050;-83
2023/08/21 04:14:08;;;;;;;3.05;2.15;;;12.30;99.90;;;;;;4957473;28;20442;-83
2023/08/21 04:16:34;;;;;;;3.40;2.28;;;12.30;99.90;;;;;;4955731;28;20191;-83
2023/08/21 04:19:00;;;;;;;4.15;2.22;;;12.30;99.90;;;;;;4956099;28;20042;-83
2023/08/21 04:21:25;;;;;;;4.60;2.58;;;12.30;99.90;;;;;;4956610;28;20254;-82
2023/08/21 04:23:51;;;;;;;4.13;2.60;;;12.20;99.90;;;;;;4955233;28;20501;-83
2023/08/21 04:26:17;;;;;;;3.95;2.45;;;12.30;99.90;;;;;;4953900;28;20066;-83
2023/08/21 04:28:43;;;;;;;4.32;2.70;;;12.30;99.90;;;;;;4955247;28;20046;-83
2023/08/21 04:31:08;;;;;;;5.43;3.13;;;12.30;99.90;;;;;;4958545;28;20050;-83
2023/08/21 04:33:35;;;;;;;4.30;2.28;;;12.30;99.90;;;;;;4953745;28;20041;-83
2023/08/21 04:36:03;;;;;;;3.70;2.17;;;12.40;99.90;;;;;;4954215;28;20050;-83
2023/08/21 04:38:29;;;;;;;3.75;2.08;;;12.40;99.90;;;;;;4942627;28;20042;-83
2023/08/21 04:40:54;;;;;;;4.60;2.53;;;12.40;99.90;;;;;;4953351;28;20049;-83
2023/08/21 04:43:20;;;;;;;3.53;2.00;;;12.40;99.90;;;;;;4970403;28;20043;-82
2023/08/21 04:45:50;;;;;;;6.07;2.45;;;12.40;99.90;;;;;;4938227;28;20058;-83
2023/08/21 04:48:16;;;;;;;3.45;2.03;;;12.40;99.90;;;;;;4958731;28;20466;-83
2023/08/21 04:50:42;;;;;;;3.30;2.60;;;12.40;99.90;;;;;;4940332;28;20059;-83
2023/08/21 04:53:08;;;;;;;3.70;2.05;;;12.50;99.90;;;;;;4970541;28;20450;-83
2023/08/21 04:55:37;;;;;;;5.32;2.08;;;12.50;99.90;;;;;;4953465;28;20859;-82
2023/08/21 04:58:03;;;;;;;2.63;2.00;;;12.60;99.90;;;;;;4957225;28;20089;-83
2023/08/21 05:00:29;;;;;;;1.40;1.30;;;12.50;99.90;;;;;;4954290;28;20050;-82
2023/08/21 05:02:54;;;;;;;1.40;1.25;;;12.50;99.90;;;;;;4958617;28;20030;-82
2023/08/21 05:05:23;;;;;;;3.00;2.10;;;12.50;99.90;;;;;;4953547;28;20043;-82
2023/08/21 05:07:49;;;;;;;2.25;1.77;;;12.60;99.90;;;;;;4940558;28;20054;-82
2023/08/21 05:10:15;;;;;;;3.05;2.10;;;12.70;99.90;;;;;;4954682;28;20585;-83
2023/08/21 05:12:40;;;;;;;3.50;2.08;;;12.70;99.90;;;;;;4939260;28;20038;-83
2023/08/21 05:15:06;;;;;;;4.65;2.45;;;12.70;99.90;;;;;;4951284;28;20145;-82
2023/08/21 05:17:32;;;;;;;4.53;2.53;;;12.90;99.90;;;;;;4941398;28;20314;-83
2023/08/21 05:19:57;;;;;;;2.83;2.47;;;13.00;99.90;;;;;;4940309;28;20042;-82
2023/08/21 05:22:23;;;;;;;5.47;2.70;;;13.00;99.90;;;;;;4956373;28;20186;-83
2023/08/21 05:24:49;;;;;;;3.05;2.42;;;13.20;99.90;;;;;;4954735;28;20042;-83
2023/08/21 05:27:15;;;;;;;2.60;2.00;;;13.20;99.90;;;;;;4955055;28;20066;-83
2023/08/21 05:29:40;;;;;;;3.70;1.75;;;13.30;99.90;;;;;;4955391;28;20058;-82
2023/08/21 05:32:06;;;;;;;3.60;1.95;;;13.40;99.90;;;;;;4957752;28;20050;-82
2023/08/21 05:34:32;;;;;;;5.22;2.58;;;13.50;99.90;;;;;;4958186;28;20038;-83
2023/08/21 05:36:57;;;;;;;4.78;2.20;;;13.60;99.90;;;;;;4969804;28;20089;-83
2023/08/21 05:39:23;;;;;;;2.88;2.08;;;13.70;99.90;;;;;;4958895;28;20151;-83
2023/08/21 05:41:49;;;;;;;3.03;2.20;;;13.70;99.90;;;;;;4970765;28;20045;-83
2023/08/21 05:44:14;;;;;;;2.97;2.35;;;13.80;99.90;;;;;;4971283;28;20050;-83
2023/08/21 05:46:43;;;;;;;3.20;2.40;;;14.00;99.90;;;;;;4955734;28;20043;-83
2023/08/21 05:49:09;;;;;;;5.57;2.60;;;14.10;99.90;;;;;;4938571;28;20544;-83
2023/08/21 05:51:34;;;;;;;3.58;2.50;;;14.20;99.90;;;;;;4954345;28;20047;-83
2023/08/21 05:54:00;;;;;;;8.43;2.92;;;14.40;99.90;;;;;;4953902;28;20034;-83
2023/08/21 05:56:26;;;;;;;5.68;3.17;;;14.60;99.90;;;;;;4953709;28;20062;-83
2023/08/21 05:58:51;;;;;;;6.22;3.45;;;14.70;99.90;;;;;;4969209;28;20055;-83
2023/08/21 06:01:17;;;;;;;4.75;3.05;;;14.80;99.90;;;;;;4954573;28;20215;-83
2023/08/21 06:03:43;;;;;;;4.28;3.05;;;14.90;99.90;;;;;;4954408;28;20130;-83
2023/08/21 06:06:09;;;;;;;6.43;2.97;;;15.00;99.90;;;;;;4956394;28;20051;-82
2023/08/21 06:08:35;;;;;;;4.55;2.95;;;15.20;99.90;;;;;;4961562;28;20046;-83
2023/08/21 06:11:00;;;;;;;5.75;3.15;;;15.30;99.90;;;;;;4955254;28;20373;-83
2023/08/21 06:13:26;;;;;;;6.50;3.28;;;15.50;99.90;;;;;;4975902;28;20134;-83
2023/08/21 06:15:53;;;;;;;4.20;2.95;;;15.70;99.90;;;;;;4972946;28;20481;-82
2023/08/21 06:18:19;;;;;;;10.73;3.28;;;15.80;99.90;;;;;;4970577;28;20212;-83
2023/08/21 06:20:45;;;;;;;5.53;3.22;;;15.90;99.90;;;;;;4941030;28;20521;-83
2023/08/21 06:23:11;;;;;;;7.32;3.60;;;16.10;99.90;;;;;;4955774;28;20077;-83
2023/08/21 06:25:37;;;;;;;9.68;3.03;;;16.20;99.90;;;;;;4943491;28;20041;-82
2023/08/21 06:28:04;;;;;;;6.35;3.75;;;16.40;99.90;;;;;;4956445;28;20038;-83
2023/08/21 06:30:29;;;;;;;9.55;3.80;;;16.50;99.90;;;;;;4958643;28;20039;-83
2023/08/21 06:32:56;;;;;;;7.25;4.20;;;16.60;99.90;;;;;;4955706;28;20041;-83
2023/08/21 06:35:21;;;;;;;5.47;3.47;;;16.70;99.90;;;;;;4941864;28;20540;-83
2023/08/21 06:37:47;;;;;;;7.13;3.40;;;16.90;99.90;;;;;;4975009;28;20084;-83
2023/08/21 06:40:13;;;;;;;5.97;3.35;;;17.00;99.90;;;;;;4941617;28;20139;-83
2023/08/21 06:42:38;;;;;;;5.45;3.00;;;17.10;99.90;;;;;;4954965;28;20038;-83
2023/08/21 06:45:07;;;;;;;7.13;3.03;;;17.30;99.90;;;;;;4971553;28;20035;-83
2023/08/21 06:47:33;;;;;;;7.47;3.25;;;17.40;99.90;;;;;;4939597;28;20185;-83
2023/08/21 06:50:00;;;;;;;9.48;3.20;;;17.50;99.90;;;;;;4970687;28;20129;-83
2023/08/21 06:52:26;;;;;;;6.30;3.00;;;17.60;99.90;;;;;;4939187;28;20038;-83
2023/08/21 06:54:52;;;;;;;7.03;3.05;;;17.70;99.90;;;;;;4970354;28;20237;-83
2023/08/21 06:57:23;;;;;;;6.45;2.97;;;17.90;99.90;;;;;;4942949;28;20058;-83
2023/08/21 06:59:49;;;;;;;8.43;2.95;;;18.00;99.90;;;;;;4957091;28;20078;-83
2023/08/21 07:02:14;;;;;;;7.22;3.03;;;18.10;99.90;;;;;;4956402;28;20047;-83
2023/08/21 07:04:40;;;;;;;3.85;2.63;;;18.20;99.90;;;;;;4959363;28;20130;-83
2023/08/21 07:07:06;;;;;;;6.85;3.20;;;18.30;99.90;;;;;;4969146;28;20053;-83
2023/08/21 07:09:32;;;;;;;5.13;2.70;;;18.50;99.90;;;;;;4972077;28;20180;-83
2023/08/21 07:11:57;;;;;;;6.00;3.00;;;18.50;99.90;;;;;;4938480;28;20501;-83
2023/08/21 07:14:23;;;;;;;5.05;2.38;;;18.70;99.90;;;;;;4937855;28;20473;-83
2023/08/21 07:16:49;;;;;;;6.40;2.40;;;18.80;99.90;;;;;;4954520;28;20230;-83
2023/08/21 07:19:14;;;;;;;6.22;2.70;;;18.90;99.90;;;;;;4952269;28;20074;-81
2023/08/21 07:21:40;;;;;;;4.65;2.10;;;19.00;99.90;;;;;;4969942;28;20039;-83
2023/08/21 07:24:06;;;;;;;3.38;1.70;;;19.10;99.90;;;;;;4955804;28;20129;-83
2023/08/21 07:26:32;;;;;;;6.28;1.95;;;19.20;99.90;;;;;;4953465;28;20168;-83
2023/08/21 07:28:57;;;;;;;4.75;2.55;;;19.20;99.90;;;;;;4953820;28;20130;-83
2023/08/21 07:31:23;;;;;;;6.65;2.40;;;19.40;99.90;;;;;;4952288;28;20046;-83
2023/08/21 07:33:49;;;;;;;3.35;1.75;;;19.40;99.90;;;;;;4952350;28;20041;-83
2023/08/21 07:36:17;;;;;;;4.68;1.60;;;19.50;99.90;;;;;;4954522;28;20112;-83
2023/08/21 07:38:43;;;;;;;4.40;1.50;;;19.60;99.90;;;;;;4958833;28;20089;-82
2023/08/21 07:41:10;;;;;;;4.38;1.90;;;19.60;99.90;;;;;;4936869;28;20076;-83
2023/08/21 07:43:43;;;;;;;6.43;2.00;;;19.70;99.90;;;;;;4954091;28;20465;-83
2023/08/21 07:46:13;;;;;;;5.70;1.58;;;19.80;99.90;;;;;;4970089;28;20053;-83
2023/08/21 07:48:39;;;;;;;5.90;1.67;;;19.80;99.90;;;;;;4955118;28;20039;-82
2023/08/21 07:51:05;;;;;;;4.50;1.27;;;20.00;99.90;;;;;;4939114;28;20038;-83
2023/08/21 07:53:31;;;;;;;3.85;1.80;;;20.00;99.90;;;;;;4963027;28;20110;-83
2023/08/21 07:55:57;;;;;;;4.15;1.40;;;20.10;99.90;;;;;;4955891;28;20046;-83
2023/08/21 07:58:23;;;;;;;3.92;1.38;;;20.20;99.90;;;;;;4943228;28;20612;-83
2023/08/21 08:00:49;;;;;;;4.85;1.90;;;20.20;99.90;;;;;;4958208;28;20356;-84
2023/08/21 08:03:14;;;;;;;3.95;1.65;;;20.30;99.90;;;;;;4957381;28;20042;-83
2023/08/21 08:05:41;;;;;;;7.57;1.75;;;20.40;99.90;;;;;;4955010;28;20074;-83
2023/08/21 08:08:09;;;;;;;4.03;1.80;;;20.40;99.90;;;;;;4941344;28;20055;-83
2023/08/21 08:10:39;;;;;;;4.80;1.70;;;20.50;99.90;;;;;;4942595;28;20638;-83
2023/08/21 08:13:08;;;;;;;4.13;1.80;;;20.50;99.90;;;;;;4972909;28;20100;-83
2023/08/21 08:15:34;;;;;;;5.28;1.65;;;20.60;99.90;;;;;;4958181;28;20042;-83
2023/08/21 08:18:01;;;;;;;7.07;1.83;;;20.80;99.90;;;;;;4938740;28;20035;-83
2023/08/21 08:20:27;;;;;;;5.18;1.50;;;20.80;99.90;;;;;;4951688;28;20073;-83
2023/08/21 08:22:52;;;;;;;3.60;1.27;;;20.90;99.90;;;;;;4957784;28;20482;-82
2023/08/21 08:25:18;;;;;;;4.55;1.38;;;21.00;99.90;;;;;;4955011;28;20268;-83
2023/08/21 08:27:47;;;;;;;3.75;1.45;;;21.10;99.90;;;;;;4942197;28;20039;-83
2023/08/21 08:30:13;;;;;;;3.20;1.70;;;21.20;99.90;;;;;;4971432;28;20039;-84
2023/08/21 08:32:47;;;;;;;5.32;1.63;;;21.30;99.90;;;;;;4952373;28;20062;-83
2023/08/21 08:35:13;;;;;;;4.13;1.48;;;21.40;99.90;;;;;;4938023;28;20047;-83
2023/08/21 08:37:40;;;;;;;3.90;1.50;;;21.50;99.90;;;;;;4971205;28;20118;-83
2023/08/21 08:40:07;;;;;;;7.65;1.65;;;21.60;99.90;;;;;;4957807;28;20050;-84
2023/08/21 08:42:34;;;;;;;5.78;1.48;;;21.60;99.90;;;;;;4954609;28;20525;-84
2023/08/21 08:45:03;;;;;;;5.40;1.52;;;21.70;99.90;;;;;;4955386;28;20050;-83
2023/08/21 08:47:31;;;;;;;3.78;1.30;;;21.70;99.90;;;;;;4955420;28;20126;-84
2023/08/21 08:49:58;;;;;;;2.58;1.42;;;21.90;99.90;;;;;;4940336;28;20058;-83
2023/08/21 08:52:26;;;;;;;4.53;1.35;;;22.00;99.90;;;;;;4941366;28;20631;-84
2023/08/21 08:54:55;;;;;;;4.18;1.42;;;22.10;99.90;;;;;;4973474;28;20108;-84
2023/08/21 08:57:23;;;;;;;4.68;1.20;;;22.20;99.90;;;;;;4957433;28;20344;-84
2023/08/21 08:59:49;;;;;;;2.67;1.25;;;22.30;99.90;;;;;;4941591;28;20818;-83
2023/08/21 09:02:16;;;;;;;3.42;1.50;;;22.30;99.90;;;;;;4958521;28;20422;-83
2023/08/21 09:04:41;;;;;;;4.63;1.42;;;22.30;99.90;;;;;;4954646;28;20034;-84
2023/08/21 09:07:11;;;;;;;5.78;1.45;;;22.50;99.90;;;;;;4954970;28;20125;-84
2023/08/21 09:09:38;;;;;;;3.58;1.20;;;22.40;99.90;;;;;;4954793;28;20034;-84
2023/08/21 09:12:13;;;;;;;2.17;1.25;;;22.60;99.90;;;;;;4970231;28;20122;-84
2023/08/21 09:14:42;;;;;;;7.57;1.30;;;22.70;99.90;;;;;;4938539;28;20042;-84
2023/08/21 09:17:09;;;;;;;3.88;1.23;;;22.80;99.90;;;;;;4955792;28;20438;-84
2023/08/21 09:19:35;;;;;;;3.25;1.50;;;22.90;99.90;;;;;;4956092;28;20311;-84
2023/08/21 09:22:20;;;;;;;3.50;1.45;;;22.90;99.90;;;;;;4969906;28;20035;-84
2023/08/21 09:25:06;;;;;;;3.28;1.30;;;23.00;99.90;;;;;;4968631;28;20163;-84
2023/08/21 09:27:33;;;;;;;3.40;1.10;;;23.00;99.90;;;;;;4954103;28;20529;-84
2023/08/21 09:30:08;;;;;;;5.93;1.30;;;23.10;99.90;;;;;;4952850;28;20314;-84
2023/08/21 09:33:12;;;;;;;2.97;1.30;;;23.20;99.90;;;;;;4952235;28;20051;-83
2023/08/21 09:35:39;;;;;;;3.00;1.30;;;23.30;99.90;;;;;;4881104;29;20039;-84
2023/08/21 09:38:06;;;;;;;3.25;1.40;;;23.40;99.90;;;;;;4871978;29;20036;-84
2023/08/21 09:40:35;;;;;;;3.30;1.13;;;23.40;99.90;;;;;;4915477;28;20535;-84
2023/08/21 09:43:03;;;;;;;3.15;1.50;;;23.50;99.90;;;;;;4971309;28;20106;-84
2023/08/21 09:45:29;;;;;;;2.22;1.10;;;23.70;99.90;;;;;;4956854;28;20101;-85
2023/08/21 09:47:56;;;;;;;3.90;1.23;;;23.70;99.90;;;;;;4956733;28;20522;-85
2023/08/21 09:50:22;;;;;;;3.28;1.10;;;23.80;99.90;;;;;;4957528;28;20042;-84
2023/08/21 09:52:49;;;;;;;2.95;0.93;;;23.90;99.90;;;;;;4953016;28;20038;-84
2023/08/21 09:55:15;;;;;;;4.47;1.40;;;23.80;99.90;;;;;;4969200;28;20422;-85
2023/08/21 09:57:41;;;;;;;3.58;1.30;;;23.80;99.90;;;;;;4957646;28;20045;-84
2023/08/21 10:00:15;;;;;;;3.42;1.40;;;24.00;99.90;;;;;;4951809;28;20122;-85
2023/08/21 10:02:47;;;;;;;2.80;1.15;;;24.20;99.90;;;;;;4961971;28;20090;-84
2023/08/21 10:05:16;;;;;;;3.22;1.10;;;24.00;99.90;;;;;;4939799;28;21215;-84
2023/08/21 10:07:43;;;;;;;4.90;1.73;;;24.10;99.90;;;;;;4956578;28;20047;-84
2023/08/21 10:10:12;;;;;;;3.00;1.40;;;24.10;99.90;;;;;;4942719;28;20514;-84
2023/08/21 10:12:38;;;;;;;3.05;1.27;;;24.20;99.90;;;;;;4956531;28;20038;-85
2023/08/21 10:15:07;;;;;;;4.88;1.27;;;24.30;99.90;;;;;;4950861;28;20586;-84
2023/08/21 10:17:33;;;;;;;3.55;1.25;;;24.40;99.90;;;;;;4955226;28;20043;-84
2023/08/21 10:20:09;;;;;;;3.45;1.00;;;24.40;99.90;;;;;;4954537;28;20053;-85
2023/08/21 10:22:46;;;;;;;4.18;1.38;;;24.30;99.90;;;;;;4956038;28;20035;-84
2023/08/21 10:25:40;;;;;;;5.07;1.30;;;24.50;99.90;;;;;;4954901;28;20329;-84
2023/08/21 10:28:06;;;;;;;4.22;1.27;;;24.50;99.90;;;;;;4955755;28;20046;-84
2023/08/21 10:30:32;;;;;;;2.92;1.10;;;24.80;99.90;;;;;;4954841;28;20584;-85
2023/08/21 10:32:59;;;;;;;3.83;1.42;;;24.50;99.90;;;;;;4957266;28;20481;-84
2023/08/21 10:35:31;;;;;;;4.55;1.33;;;24.60;99.90;;;;;;4954843;28;20038;-85
2023/08/21 10:38:15;;;;;;;5.10;1.67;;;24.60;99.90;;;;;;4954565;28;20444;-84
2023/08/21 10:41:01;;;;;;;2.50;1.00;;;24.80;99.90;;;;;;4954042;28;20109;-83
2023/08/21 10:43:38;;;;;;;7.03;2.13;;;24.80;99.90;;;;;;4948577;28;20038;-85
2023/08/21 10:46:04;;;;;;;5.13;1.20;;;24.90;99.90;;;;;;4957523;28;20234;-84
2023/08/21 10:48:30;;;;;;;6.32;1.90;;;25.10;99.90;;;;;;4953739;28;20708;-85
2023/08/21 10:50:55;;;;;;;3.40;1.20;;;25.10;99.90;;;;;;4972281;28;20118;-85
2023/08/21 10:53:24;;;;;;;3.22;1.30;;;25.20;99.90;;;;;;4937286;28;20049;-85
2023/08/21 10:55:54;;;;;;;2.58;1.15;;;25.30;99.90;;;;;;4971864;28;20658;-84
2023/08/21 10:58:20;;;;;;;5.95;1.83;;;25.40;99.90;;;;;;4957850;28;20078;-85
2023/08/21 11:00:45;;;;;;;4.85;1.30;;;25.50;99.90;;;;;;4953508;28;20114;-84
2023/08/21 11:03:11;;;;;;;4.55;1.35;;;25.60;99.90;;;;;;4953683;28;20055;-85
2023/08/21 11:05:39;;;;;;;4.25;1.20;;;25.60;99.90;;;;;;4952402;28;20058;-85
2023/08/21 11:08:05;;;;;;;2.70;0.98;;;25.80;99.90;;;;;;4971117;28;20046;-85
2023/08/21 11:10:31;;;;;;;1.90;1.17;;;25.80;99.90;;;;;;4959351;28;20089;-86
2023/08/21 11:13:02;;;;;;;4.35;1.27;;;25.90;99.90;;;;;;4959616;28;20509;-85
2023/08/21 11:15:29;;;;;;;3.72;1.20;;;26.10;99.90;;;;;;4955550;28;20057;-84
2023/08/21 11:17:59;;;;;;;2.40;1.35;;;26.10;99.90;;;;;;4957896;28;20051;-84
2023/08/21 11:20:33;;;;;;;3.30;1.20;;;26.10;99.90;;;;;;4942996;28;20346;-86
2023/08/21 11:23:07;;;;;;;4.38;1.38;;;26.30;99.90;;;;;;4975330;28;20602;-84
2023/08/21 11:25:39;;;;;;;4.10;1.23;;;26.30;99.90;;;;;;4957259;28;20045;-85
2023/08/21 11:28:05;;;;;;;4.28;1.30;;;26.50;99.90;;;;;;4977205;28;20118;-85
2023/08/21 11:30:34;;;;;;;2.33;1.10;;;26.70;99.90;;;;;;4960655;28;20031;-85
2023/08/21 11:33:08;;;;;;;2.00;1.20;;;26.70;99.90;;;;;;4945026;28;20457;-85
2023/08/21 11:35:35;;;;;;;3.83;1.48;;;26.70;99.90;;;;;;4959151;28;20045;-85
2023/08/21 11:38:00;;;;;;;2.55;1.33;;;26.50;99.90;;;;;;4962396;28;20038;-86
2023/08/21 11:40:26;;;;;;;6.88;1.40;;;26.90;99.90;;;;;;4942353;28;20502;-84
2023/08/21 11:42:52;;;;;;;1.92;1.10;;;27.00;99.90;;;;;;4958744;28;20100;-85
2023/08/21 11:45:21;;;;;;;2.60;1.13;;;27.30;99.90;;;;;;4960030;28;20081;-85
2023/08/21 11:47:47;;;;;;;3.55;1.40;;;27.40;50.60;;;;;;4961573;28;20125;-85
2023/08/21 11:50:15;;;;;;;4.47;1.38;;;27.40;1.00;;;;;;4960371;28;21218;-85
2023/08/21 11:52:42;;;;;;;5.38;1.50;;;27.30;99.90;;;;;;4961733;28;20136;-84
2023/08/21 11:55:10;;;;;;;4.95;1.45;;;27.30;99.90;;;;;;4960747;28;20034;-85
2023/08/21 11:57:48;;;;;;;3.25;1.60;;;27.60;1.00;;;;;;4958408;28;20451;-84
2023/08/21 12:00:18;;;;;;;2.05;1.20;;;27.70;99.90;;;;;;4945842;28;20069;-84
2023/08/21 12:02:54;;;;;;;3.70;1.33;;;27.80;99.90;;;;;;4960176;28;20509;-85
2023/08/21 12:05:20;;;;;;;4.25;1.27;;;27.40;99.90;;;;;;4961038;28;20458;-85
2023/08/21 12:07:45;;;;;;;5.03;1.67;;;27.30;1.00;;;;;;4962574;28;20058;-86
2023/08/21 12:10:11;;;;;;;3.63;1.52;;;27.40;1.00;;;;;;4944947;28;20110;-86
2023/08/21 12:12:36;;;;;;;2.65;1.20;;;27.30;99.90;;;;;;4963054;28;20521;-85
2023/08/21 12:15:02;;;;;;;5.30;1.40;;;27.60;24.40;;;;;;4948180;28;20280;-84
2023/08/21 12:17:28;;;;;;;2.35;1.20;;;27.40;99.90;;;;;;4962620;28;20564;-85
2023/08/21 12:19:53;;;;;;;2.58;1.30;;;27.60;1.00;;;;;;4961474;28;20277;-85
2023/08/21 12:22:19;;;;;;;4.28;1.27;;;27.30;1.00;;;;;;4960200;28;20046;-85
2023/08/21 12:24:45;;;;;;;3.38;1.30;;;26.80;99.90;;;;;;4976386;28;20121;-84
2023/08/21 12:27:11;;;;;;;4.05;1.27;;;27.20;99.90;;;;;;4965971;28;20122;-86
2023/08/21 12:29:39;;;;;;;1.75;1.10;;;27.10;99.90;;;;;;4986799;28;20100;-85
2023/08/21 12:32:05;;;;;;;2.05;0.90;;;27.20;99.90;;;;;;4963402;28;20089;-85
2023/08/21 12:34:31;;;;;;;3.17;1.35;;;27.30;1.00;;;;;;4961487;28;20049;-85
2023/08/21 12:36:57;;;;;;;1.88;0.95;;;27.60;18.20;;;;;;4958167;28;20106;-85
2023/08/21 12:39:22;;;;;;;2.75;1.33;;;27.70;99.90;;;;;;4961977;28;20482;-85
2023/08/21 12:41:48;;;;;;;2.38;1.10;;;28.00;1.00;;;;;;4974426;28;20043;-83
2023/08/21 12:44:14;;;;;;;3.65;1.20;;;28.50;48.80;;;;;;4973815;28;20491;-85
2023/08/21 12:46:40;;;;;;;2.25;0.85;;;28.50;99.90;;;;;;4942736;28;20096;-85
2023/08/21 12:49:08;;;;;;;2.05;0.95;;;28.80;99.90;;;;;;4943317;28;20334;-86